sensor_id;sensor_type;location;lat;lon;timestamp;temperature;humidity
18898;DHT22;9581;49.484;8.556;2023-05-02T00:00:43;14.90;99.90
18898;DHT22;9581;49.484;8.556;2023-05-02T00:03:11;15.10;99.90
18898;DHT22;9581;49.484;8.556;2023-05-02T00:05:39;15.00;99.90
18898;DHT22;9581;49.484;8.556;2023-05-02T00:08:06;15.10;99.90
18898;DHT22;9581;49.484;8.556;2023-05-02T00:10:33;15.00;99.90
18898;DHT22;9581;49.484;8.556;2023-05-02T00:13:00;15.00;99.90
18898;DHT22;9581;49.484;8.556;2023-05-02T00:15:27;15.10;99.90
18898;DHT22;9581;49.484;8.556;2023-05-02T00:17:53;15.10;99.90
18898;DHT22;9581;49.484;8.556;2023-05-02T00:20:20;15.10;99.90
18898;DHT22;9581;49.484;8.556;2023-05-02T00:22:49;15.00;99.90
18898;DHT22;9581;49.484;8.556;2023-05-02T00:25:15;14.90;99.90
18898;DHT22;9581;49.484;8.556;2023-05-02T00:27:42;14.80;99.90
18898;DHT22;9581;49.484;8.556;2023-05-02T00:30:11;14.80;99.90
18898;DHT22;9581;49.484;8.556;2023-05-02T00:32:38;14.70;99.90
18898;DHT22;9581;49.484;8.556;2023-05-02T00:35:06;14.60;99.90
18898;DHT22;9581;49.484;8.556;2023-05-02T00:37:33;14.50;99.90
18898;DHT22;9581;49.484;8.556;2023-05-02T00:40:01;14.70;99.90
18898;DHT22;9581;49.484;8.556;2023-05-02T00:42:31;14.50;99.90
18898;DHT22;9581;49.484;8.556;2023-05-02T00:45:00;14.50;99.90
18898;DHT22;9581;49.484;8.556;2023-05-02T00:47:29;14.60;99.90
18898;DHT22;9581;49.484;8.556;2023-05-02T00:49:56;14.60;99.90
18898;DHT22;9581;49.484;8.556;2023-05-02T00:52:24;14.60;99.90
18898;DHT22;9581;49.484;8.556;2023-05-02T00:54:51;14.40;99.90
18898;DHT22;9581;49.484;8.556;2023-05-02T00:57:19;14.30;99.90
18898;DHT22;9581;49.484;8.556;2023-05-02T00:59:46;14.10;99.90
18898;DHT22;9581;49.484;8.556;2023-05-02T01:02:24;14.00;99.90
18898;DHT22;9581;49.484;8.556;2023-05-02T01:05:01;13.90;99.90
18898;DHT22;9581;49.484;8.556;2023-05-02T01:08:02;13.80;99.90
18898;DHT22;9581;49.484;8.556;2023-05-02T01:10:45;13.70;99.90
18898;DHT22;9581;49.484;8.556;2023-05-02T01:13:19;13.60;99.90
18898;DHT22;9581;49.484;8.556;2023-05-02T01:15:48;13.80;99.90
18898;DHT22;9581;49.484;8.556;2023-05-02T01:18:18;13.70;99.90
18898;DHT22;9581;49.484;8.556;2023-05-02T01:20:47;13.80;99.90
18898;DHT22;9581;49.484;8.556;2023-05-02T01:23:24;13.80;99.90
18898;DHT22;9581;49.484;8.556;2023-05-02T01:25:59;13.40;99.90
18898;DHT22;9581;49.484;8.556;2023-05-02T01:28:42;13.50;99.90
18898;DHT22;9581;49.484;8.556;2023-05-02T01:31:10;13.30;99.90
18898;DHT22;9581;49.484;8.556;2023-05-02T01:33:37;13.40;99.90
18898;DHT22;9581;49.484;8.556;2023-05-02T01:36:06;13.30;99.90
18898;DHT22;9581;49.484;8.556;2023-05-02T01:38:34;13.10;99.90
18898;DHT22;9581;49.484;8.556;2023-05-02T01:41:03;13.00;99.90
18898;DHT22;9581;49.484;8.556;2023-05-02T01:43:32;13.20;99.90
18898;DHT22;9581;49.484;8.556;2023-05-02T01:46:02;13.20;99.90
18898;DHT22;9581;49.484;8.556;2023-05-02T01:48:30;13.20;99.90
18898;DHT22;9581;49.484;8.556;2023-05-02T01:50:58;13.10;99.90
18898;DHT22;9581;49.484;8.556;2023-05-02T01:53:27;12.90;99.90
18898;DHT22;9581;49.484;8.556;2023-05-02T01:55:55;12.90;99.90
18898;DHT22;9581;49.484;8.556;2023-05-02T01:58:26;12.60;99.90
18898;DHT22;9581;49.484;8.556;2023-05-02T02:00:55;12.50;99.90
18898;DHT22;9581;49.484;8.556;2023-05-02T02:03:24;12.60;99.90
18898;DHT22;9581;49.484;8.556;2023-05-02T02:05:53;12.60;99.90
18898;DHT22;9581;49.484;8.556;2023-05-02T02:08:21;12.60;99.90
18898;DHT22;9581;49.484;8.556;2023-05-02T02:10:52;12.60;99.90
18898;DHT22;9581;49.484;8.556;2023-05-02T02:13:25;12.50;99.90
18898;DHT22;9581;49.484;8.556;2023-05-02T02:15:58;12.30;99.90
18898;DHT22;9581;49.484;8.556;2023-05-02T02:18:28;12.50;99.90
18898;DHT22;9581;49.484;8.556;2023-05-02T02:20:58;12.50;99.90
18898;DHT22;9581;49.484;8.556;2023-05-02T02:23:27;12.60;99.90
18898;DHT22;9581;49.484;8.556;2023-05-02T02:25:55;12.50;99.90
18898;DHT22;9581;49.484;8.556;2023-05-02T02:28:23;12.60;99.90
18898;DHT22;9581;49.484;8.556;2023-05-02T02:30:50;12.50;99.90
18898;DHT22;9581;49.484;8.556;2023-05-02T02:33:17;12.50;99.90
18898;DHT22;9581;49.484;8.556;2023-05-02T02:35:49;12.50;99.90
18898;DHT22;9581;49.484;8.556;2023-05-02T02:38:25;12.30;99.90
18898;DHT22;9581;49.484;8.556;2023-05-02T02:40:56;12.30;99.90
18898;DHT22;9581;49.484;8.556;2023-05-02T02:43:41;12.30;99.90
18898;DHT22;9581;49.484;8.556;2023-05-02T02:46:18;12.20;99.90
18898;DHT22;9581;49.484;8.556;2023-05-02T02:48:59;12.40;99.90
18898;DHT22;9581;49.484;8.556;2023-05-02T02:51:45;12.30;99.90
18898;DHT22;9581;49.484;8.556;2023-05-02T02:54:20;12.10;99.90
18898;DHT22;9581;49.484;8.556;2023-05-02T02:56:57;12.10;99.90
18898;DHT22;9581;49.484;8.556;2023-05-02T02:59:28;12.10;99.90
18898;DHT22;9581;49.484;8.556;2023-05-02T03:02:02;12.10;99.90
18898;DHT22;9581;49.484;8.556;2023-05-02T03:04:31;12.20;99.90
18898;DHT22;9581;49.484;8.556;2023-05-02T03:07:01;12.30;99.90
18898;DHT22;9581;49.484;8.556;2023-05-02T03:09:28;11.80;99.90
18898;DHT22;9581;49.484;8.556;2023-05-02T03:12:05;11.70;99.90
18898;DHT22;9581;49.484;8.556;2023-05-02T03:14:32;11.80;99.90
18898;DHT22;9581;49.484;8.556;2023-05-02T03:16:59;11.70;99.90
18898;DHT22;9581;49.484;8.556;2023-05-02T03:19:25;11.90;99.90
18898;DHT22;9581;49.484;8.556;2023-05-02T03:21:52;11.70;99.90
18898;DHT22;9581;49.484;8.556;2023-05-02T03:24:20;11.60;99.90
18898;DHT22;9581;49.484;8.556;2023-05-02T03:26:47;11.70;99.90
18898;DHT22;9581;49.484;8.556;2023-05-02T03:29:15;11.80;99.90
18898;DHT22;9581;49.484;8.556;2023-05-02T03:31:41;11.70;99.90
18898;DHT22;9581;49.484;8.556;2023-05-02T03:34:08;11.90;99.90
18898;DHT22;9581;49.484;8.556;2023-05-02T03:36:35;11.70;99.90
18898;DHT22;9581;49.484;8.556;2023-05-02T03:39:02;11.80;99.90
18898;DHT22;9581;49.484;8.556;2023-05-02T03:41:30;11.70;99.90
18898;DHT22;9581;49.484;8.556;2023-05-02T03:43:56;11.60;99.90
18898;DHT22;9581;49.484;8.556;2023-05-02T03:46:24;11.50;99.90
18898;DHT22;9581;49.484;8.556;2023-05-02T03:48:51;11.60;99.90
18898;DHT22;9581;49.484;8.556;2023-05-02T03:51:17;11.70;99.90
18898;DHT22;9581;49.484;8.556;2023-05-02T03:53:45;11.60;99.90
18898;DHT22;9581;49.484;8.556;2023-05-02T03:56:16;11.60;99.90
18898;DHT22;9581;49.484;8.556;2023-05-02T03:58:46;11.70;99.90
18898;DHT22;9581;49.484;8.556;2023-05-02T04:01:13;11.50;99.90
18898;DHT22;9581;49.484;8.556;2023-05-02T04:03:41;11.20;99.90
18898;DHT22;9581;49.484;8.556;2023-05-02T04:06:07;11.20;99.90
18898;DHT22;9581;49.484;8.556;2023-05-02T04:08:34;11.30;99.90
18898;DHT22;9581;49.484;8.556;2023-05-02T04:11:01;11.40;99.90
18898;DHT22;9581;49.484;8.556;2023-05-02T04:13:28;10.90;99.90
18898;DHT22;9581;49.484;8.556;2023-05-02T04:15:56;11.10;99.90
18898;DHT22;9581;49.484;8.556;2023-05-02T04:18:23;11.20;99.90
18898;DHT22;9581;49.484;8.556;2023-05-02T04:20:50;11.00;99.90
18898;DHT22;9581;49.484;8.556;2023-05-02T04:23:17;11.20;99.90
18898;DHT22;9581;49.484;8.556;2023-05-02T04:25:50;11.10;99.90
18898;DHT22;9581;49.484;8.556;2023-05-02T04:28:17;11.00;99.90
18898;DHT22;9581;49.484;8.556;2023-05-02T04:30:44;11.20;99.90
18898;DHT22;9581;49.484;8.556;2023-05-02T04:33:12;11.30;99.90
18898;DHT22;9581;49.484;8.556;2023-05-02T04:35:39;11.50;99.90
18898;DHT22;9581;49.484;8.556;2023-05-02T04:38:06;11.50;99.90
18898;DHT22;9581;49.484;8.556;2023-05-02T04:40:33;11.60;99.90
18898;DHT22;9581;49.484;8.556;2023-05-02T04:43:00;11.90;99.90
18898;DHT22;9581;49.484;8.556;2023-05-02T04:45:27;12.00;99.90
18898;DHT22;9581;49.484;8.556;2023-05-02T04:47:54;12.00;99.90
18898;DHT22;9581;49.484;8.556;2023-05-02T04:50:22;12.40;99.90
18898;DHT22;9581;49.484;8.556;2023-05-02T04:52:49;12.30;99.90
18898;DHT22;9581;49.484;8.556;2023-05-02T04:55:16;12.00;99.90
18898;DHT22;9581;49.484;8.556;2023-05-02T04:57:42;12.10;99.90
18898;DHT22;9581;49.484;8.556;2023-05-02T05:00:10;11.90;99.90
18898;DHT22;9581;49.484;8.556;2023-05-02T05:02:37;11.90;99.90
18898;DHT22;9581;49.484;8.556;2023-05-02T05:05:04;12.10;99.90
18898;DHT22;9581;49.484;8.556;2023-05-02T05:07:33;12.10;99.90
18898;DHT22;9581;49.484;8.556;2023-05-02T05:09:59;12.10;99.90
18898;DHT22;9581;49.484;8.556;2023-05-02T05:12:26;12.20;99.90
18898;DHT22;9581;49.484;8.556;2023-05-02T05:14:53;12.30;99.90
18898;DHT22;9581;49.484;8.556;2023-05-02T05:17:19;12.40;99.90
18898;DHT22;9581;49.484;8.556;2023-05-02T05:19:47;12.70;99.90
18898;DHT22;9581;49.484;8.556;2023-05-02T05:22:14;12.70;99.90
18898;DHT22;9581;49.484;8.556;2023-05-02T05:24:42;12.90;99.90
18898;DHT22;9581;49.484;8.556;2023-05-02T05:27:09;12.90;99.90
18898;DHT22;9581;49.484;8.556;2023-05-02T05:29:36;13.20;99.90
18898;DHT22;9581;49.484;8.556;2023-05-02T05:32:02;13.30;99.90
18898;DHT22;9581;49.484;8.556;2023-05-02T05:34:30;13.40;99.90
18898;DHT22;9581;49.484;8.556;2023-05-02T05:36:56;13.50;99.90
18898;DHT22;9581;49.484;8.556;2023-05-02T05:39:24;13.50;99.90
18898;DHT22;9581;49.484;8.556;2023-05-02T05:41:52;13.70;99.90
18898;DHT22;9581;49.484;8.556;2023-05-02T05:44:19;13.80;99.90
18898;DHT22;9581;49.484;8.556;2023-05-02T05:46:46;13.80;99.90
18898;DHT22;9581;49.484;8.556;2023-05-02T05:49:15;13.90;99.90
18898;DHT22;9581;49.484;8.556;2023-05-02T05:51:42;13.70;99.90
18898;DHT22;9581;49.484;8.556;2023-05-02T05:54:08;13.80;99.90
18898;DHT22;9581;49.484;8.556;2023-05-02T05:56:35;13.80;99.90
18898;DHT22;9581;49.484;8.556;2023-05-02T05:59:03;13.90;99.90
18898;DHT22;9581;49.484;8.556;2023-05-02T06:01:30;14.00;99.90
18898;DHT22;9581;49.484;8.556;2023-05-02T06:03:58;14.00;99.90
18898;DHT22;9581;49.484;8.556;2023-05-02T06:06:25;13.90;99.90
18898;DHT22;9581;49.484;8.556;2023-05-02T06:08:52;13.90;99.90
18898;DHT22;9581;49.484;8.556;2023-05-02T06:11:19;14.00;99.90
18898;DHT22;9581;49.484;8.556;2023-05-02T06:13:46;14.10;99.90
18898;DHT22;9581;49.484;8.556;2023-05-02T06:16:14;14.30;99.90
18898;DHT22;9581;49.484;8.556;2023-05-02T06:18:42;14.60;99.90
18898;DHT22;9581;49.484;8.556;2023-05-02T06:21:10;14.70;99.90
18898;DHT22;9581;49.484;8.556;2023-05-02T06:23:37;14.70;99.90
18898;DHT22;9581;49.484;8.556;2023-05-02T06:26:04;14.40;99.90
18898;DHT22;9581;49.484;8.556;2023-05-02T06:28:31;14.30;99.90
18898;DHT22;9581;49.484;8.556;2023-05-02T06:30:58;14.10;99.90
18898;DHT22;9581;49.484;8.556;2023-05-02T06:33:27;14.50;99.90
18898;DHT22;9581;49.484;8.556;2023-05-02T06:35:54;14.50;99.90
18898;DHT22;9581;49.484;8.556;2023-05-02T06:38:22;14.50;99.90
18898;DHT22;9581;49.484;8.556;2023-05-02T06:40:49;14.50;99.90
18898;DHT22;9581;49.484;8.556;2023-05-02T06:43:16;14.70;99.90
18898;DHT22;9581;49.484;8.556;2023-05-02T06:45:43;14.80;99.90
18898;DHT22;9581;49.484;8.556;2023-05-02T06:48:10;14.70;99.90
18898;DHT22;9581;49.484;8.556;2023-05-02T06:50:38;14.50;99.90
18898;DHT22;9581;49.484;8.556;2023-05-02T06:53:05;14.60;99.90
18898;DHT22;9581;49.484;8.556;2023-05-02T06:55:32;14.60;99.90
18898;DHT22;9581;49.484;8.556;2023-05-02T06:57:59;14.60;99.90
18898;DHT22;9581;49.484;8.556;2023-05-02T07:00:26;14.80;99.90
18898;DHT22;9581;49.484;8.556;2023-05-02T07:02:52;14.90;99.90
18898;DHT22;9581;49.484;8.556;2023-05-02T07:05:19;14.80;99.90
18898;DHT22;9581;49.484;8.556;2023-05-02T07:07:47;15.20;99.90
18898;DHT22;9581;49.484;8.556;2023-05-02T07:10:14;15.00;99.90
18898;DHT22;9581;49.484;8.556;2023-05-02T07:12:41;15.10;99.90
18898;DHT22;9581;49.484;8.556;2023-05-02T07:15:08;15.10;99.90
18898;DHT22;9581;49.484;8.556;2023-05-02T07:17:35;15.20;99.90
18898;DHT22;9581;49.484;8.556;2023-05-02T07:20:04;15.00;99.90
18898;DHT22;9581;49.484;8.556;2023-05-02T07:22:31;14.80;99.90
18898;DHT22;9581;49.484;8.556;2023-05-02T07:25:01;15.00;99.90
18898;DHT22;9581;49.484;8.556;2023-05-02T07:27:28;15.40;99.90
18898;DHT22;9581;49.484;8.556;2023-05-02T07:29:55;15.30;99.90
18898;DHT22;9581;49.484;8.556;2023-05-02T07:32:21;15.90;99.90
18898;DHT22;9581;49.484;8.556;2023-05-02T07:34:49;16.30;99.90
18898;DHT22;9581;49.484;8.556;2023-05-02T07:37:18;16.60;99.90
18898;DHT22;9581;49.484;8.556;2023-05-02T07:39:45;16.70;99.90
18898;DHT22;9581;49.484;8.556;2023-05-02T07:42:13;16.80;99.90
18898;DHT22;9581;49.484;8.556;2023-05-02T07:44:40;16.90;99.90
18898;DHT22;9581;49.484;8.556;2023-05-02T07:47:07;16.90;99.90
18898;DHT22;9581;49.484;8.556;2023-05-02T07:49:34;17.10;99.90
18898;DHT22;9581;49.484;8.556;2023-05-02T07:52:01;17.50;99.90
18898;DHT22;9581;49.484;8.556;2023-05-02T07:54:28;17.50;99.90
18898;DHT22;9581;49.484;8.556;2023-05-02T07:56:55;18.20;99.90
18898;DHT22;9581;49.484;8.556;2023-05-02T07:59:24;18.40;99.90
18898;DHT22;9581;49.484;8.556;2023-05-02T08:01:52;18.90;99.90
18898;DHT22;9581;49.484;8.556;2023-05-02T08:04:18;19.40;99.90
18898;DHT22;9581;49.484;8.556;2023-05-02T08:06:45;19.90;99.90
18898;DHT22;9581;49.484;8.556;2023-05-02T08:09:12;20.50;99.90
18898;DHT22;9581;49.484;8.556;2023-05-02T08:11:39;20.40;99.90
18898;DHT22;9581;49.484;8.556;2023-05-02T08:14:05;20.20;99.90
18898;DHT22;9581;49.484;8.556;2023-05-02T08:16:33;20.10;99.90
18898;DHT22;9581;49.484;8.556;2023-05-02T08:19:00;19.60;99.90
18898;DHT22;9581;49.484;8.556;2023-05-02T08:21:27;19.10;99.90
18898;DHT22;9581;49.484;8.556;2023-05-02T08:23:57;18.80;99.90
18898;DHT22;9581;49.484;8.556;2023-05-02T08:26:24;18.60;99.90
18898;DHT22;9581;49.484;8.556;2023-05-02T08:28:51;18.40;99.90
18898;DHT22;9581;49.484;8.556;2023-05-02T08:31:18;18.10;99.90
18898;DHT22;9581;49.484;8.556;2023-05-02T08:33:46;18.00;99.90
18898;DHT22;9581;49.484;8.556;2023-05-02T08:36:14;18.30;99.90
18898;DHT22;9581;49.484;8.556;2023-05-02T08:38:42;18.30;99.90
18898;DHT22;9581;49.484;8.556;2023-05-02T08:41:09;18.60;99.90
18898;DHT22;9581;49.484;8.556;2023-05-02T08:43:38;18.30;99.90
18898;DHT22;9581;49.484;8.556;2023-05-02T08:46:06;18.20;99.90
18898;DHT22;9581;49.484;8.556;2023-05-02T08:48:35;18.30;99.90
18898;DHT22;9581;49.484;8.556;2023-05-02T08:51:05;18.40;99.90
18898;DHT22;9581;49.484;8.556;2023-05-02T08:53:34;18.40;99.90
18898;DHT22;9581;49.484;8.556;2023-05-02T08:56:03;18.30;99.90
18898;DHT22;9581;49.484;8.556;2023-05-02T08:58:30;18.10;99.90
18898;DHT22;9581;49.484;8.556;2023-05-02T09:01:00;18.10;99.90
18898;DHT22;9581;49.484;8.556;2023-05-02T09:03:29;18.10;99.90
18898;DHT22;9581;49.484;8.556;2023-05-02T09:06:05;18.40;99.90
18898;DHT22;9581;49.484;8.556;2023-05-02T09:08:32;18.30;99.90
18898;DHT22;9581;49.484;8.556;2023-05-02T09:11:00;18.10;99.90
18898;DHT22;9581;49.484;8.556;2023-05-02T09:13:29;18.20;99.90
18898;DHT22;9581;49.484;8.556;2023-05-02T09:15:56;18.40;99.90
18898;DHT22;9581;49.484;8.556;2023-05-02T09:18:27;18.20;99.90
18898;DHT22;9581;49.484;8.556;2023-05-02T09:20:54;18.40;99.90
18898;DHT22;9581;49.484;8.556;2023-05-02T09:23:31;18.50;99.90
18898;DHT22;9581;49.484;8.556;2023-05-02T09:25:59;18.40;99.90
18898;DHT22;9581;49.484;8.556;2023-05-02T09:28:39;18.30;99.90
18898;DHT22;9581;49.484;8.556;2023-05-02T09:31:07;17.90;99.90
18898;DHT22;9581;49.484;8.556;2023-05-02T09:33:35;17.80;99.90
18898;DHT22;9581;49.484;8.556;2023-05-02T09:36:02;17.80;99.90
18898;DHT22;9581;49.484;8.556;2023-05-02T09:38:30;17.80;99.90
18898;DHT22;9581;49.484;8.556;2023-05-02T09:40:58;18.00;99.90
18898;DHT22;9581;49.484;8.556;2023-05-02T09:43:28;18.00;99.90
18898;DHT22;9581;49.484;8.556;2023-05-02T09:45:59;18.00;99.90
18898;DHT22;9581;49.484;8.556;2023-05-02T09:48:27;18.00;99.90
18898;DHT22;9581;49.484;8.556;2023-05-02T09:50:54;17.90;99.90
18898;DHT22;9581;49.484;8.556;2023-05-02T09:53:25;17.60;99.90
18898;DHT22;9581;49.484;8.556;2023-05-02T09:56:00;17.60;99.90
18898;DHT22;9581;49.484;8.556;2023-05-02T09:58:28;17.60;99.90
18898;DHT22;9581;49.484;8.556;2023-05-02T10:00:56;17.40;99.90
18898;DHT22;9581;49.484;8.556;2023-05-02T10:03:24;17.50;99.90
18898;DHT22;9581;49.484;8.556;2023-05-02T10:05:52;17.50;99.90
18898;DHT22;9581;49.484;8.556;2023-05-02T10:08:20;17.30;99.90
18898;DHT22;9581;49.484;8.556;2023-05-02T10:10:51;17.30;99.90
18898;DHT22;9581;49.484;8.556;2023-05-02T10:13:21;17.20;99.90
18898;DHT22;9581;49.484;8.556;2023-05-02T10:15:53;17.10;99.90
18898;DHT22;9581;49.484;8.556;2023-05-02T10:18:27;17.00;99.90
18898;DHT22;9581;49.484;8.556;2023-05-02T10:20:56;17.00;99.90
18898;DHT22;9581;49.484;8.556;2023-05-02T10:23:28;17.10;99.90
18898;DHT22;9581;49.484;8.556;2023-05-02T10:25:56;17.20;99.90
18898;DHT22;9581;49.484;8.556;2023-05-02T10:28:25;17.10;99.90
18898;DHT22;9581;49.484;8.556;2023-05-02T10:30:53;17.40;99.90
18898;DHT22;9581;49.484;8.556;2023-05-02T10:33:21;17.50;99.90
18898;DHT22;9581;49.484;8.556;2023-05-02T10:35:48;17.80;99.90
18898;DHT22;9581;49.484;8.556;2023-05-02T10:38:17;19.30;99.90
18898;DHT22;9581;49.484;8.556;2023-05-02T10:40:50;21.30;99.90
18898;DHT22;9581;49.484;8.556;2023-05-02T10:43:21;21.50;99.90
18898;DHT22;9581;49.484;8.556;2023-05-02T10:45:51;21.70;99.90
18898;DHT22;9581;49.484;8.556;2023-05-02T10:48:20;21.40;99.90
18898;DHT22;9581;49.484;8.556;2023-05-02T10:50:49;21.40;99.90
18898;DHT22;9581;49.484;8.556;2023-05-02T10:53:37;22.10;99.90
18898;DHT22;9581;49.484;8.556;2023-05-02T10:56:12;24.40;99.90
18898;DHT22;9581;49.484;8.556;2023-05-02T10:58:40;23.40;99.90
18898;DHT22;9581;49.484;8.556;2023-05-02T11:01:36;21.70;99.90
18898;DHT22;9581;49.484;8.556;2023-05-02T11:04:10;20.70;99.90
18898;DHT22;9581;49.484;8.556;2023-05-02T11:09:38;21.00;99.90
18898;DHT22;9581;49.484;8.556;2023-05-02T11:12:04;20.60;99.90
18898;DHT22;9581;49.484;8.556;2023-05-02T11:14:47;22.60;99.90
18898;DHT22;9581;49.484;8.556;2023-05-02T11:17:18;25.20;99.90
18898;DHT22;9581;49.484;8.556;2023-05-02T11:22:53;27.60;97.20
18898;DHT22;9581;49.484;8.556;2023-05-02T11:25:31;28.60;92.70
18898;DHT22;9581;49.484;8.556;2023-05-02T11:27:58;25.30;94.00
18898;DHT22;9581;49.484;8.556;2023-05-02T11:30:38;23.50;95.90
18898;DHT22;9581;49.484;8.556;2023-05-02T11:33:14;22.30;96.90
18898;DHT22;9581;49.484;8.556;2023-05-02T11:35:46;21.90;97.90
18898;DHT22;9581;49.484;8.556;2023-05-02T11:38:18;22.10;97.90
18898;DHT22;9581;49.484;8.556;2023-05-02T11:40:54;25.50;97.30
18898;DHT22;9581;49.484;8.556;2023-05-02T11:43:22;24.40;95.60
18898;DHT22;9581;49.484;8.556;2023-05-02T11:45:50;24.90;94.20
18898;DHT22;9581;49.484;8.556;2023-05-02T11:48:20;24.60;93.50
18898;DHT22;9581;49.484;8.556;2023-05-02T11:50:49;24.10;94.70
18898;DHT22;9581;49.484;8.556;2023-05-02T11:53:17;26.60;94.30
18898;DHT22;9581;49.484;8.556;2023-05-02T11:55:47;26.20;92.10
18898;DHT22;9581;49.484;8.556;2023-05-02T11:58:16;27.70;92.40
18898;DHT22;9581;49.484;8.556;2023-05-02T12:00:44;27.00;92.30
18898;DHT22;9581;49.484;8.556;2023-05-02T12:03:21;26.40;91.90
18898;DHT22;9581;49.484;8.556;2023-05-02T12:05:48;26.50;91.10
18898;DHT22;9581;49.484;8.556;2023-05-02T12:08:23;27.10;91.70
18898;DHT22;9581;49.484;8.556;2023-05-02T12:10:52;26.10;89.10
18898;DHT22;9581;49.484;8.556;2023-05-02T12:13:21;24.60;90.30
18898;DHT22;9581;49.484;8.556;2023-05-02T12:15:49;24.10;92.40
18898;DHT22;9581;49.484;8.556;2023-05-02T12:18:18;23.70;93.10
18898;DHT22;9581;49.484;8.556;2023-05-02T12:20:49;24.00;93.40
18898;DHT22;9581;49.484;8.556;2023-05-02T12:23:18;24.10;91.70
18898;DHT22;9581;49.484;8.556;2023-05-02T12:25:45;24.70;92.10
18898;DHT22;9581;49.484;8.556;2023-05-02T12:28:13;24.30;91.40
18898;DHT22;9581;49.484;8.556;2023-05-02T12:30:40;24.10;93.40
18898;DHT22;9581;49.484;8.556;2023-05-02T12:33:07;23.60;92.70
18898;DHT22;9581;49.484;8.556;2023-05-02T12:35:34;23.40;92.90
18898;DHT22;9581;49.484;8.556;2023-05-02T12:38:13;23.90;93.10
18898;DHT22;9581;49.484;8.556;2023-05-02T12:40:48;23.70;91.80
18898;DHT22;9581;49.484;8.556;2023-05-02T12:43:16;23.30;92.50
18898;DHT22;9581;49.484;8.556;2023-05-02T12:45:43;23.10;92.50
18898;DHT22;9581;49.484;8.556;2023-05-02T12:48:20;22.90;92.20
18898;DHT22;9581;49.484;8.556;2023-05-02T12:50:48;22.60;93.00
18898;DHT22;9581;49.484;8.556;2023-05-02T12:53:16;22.90;92.20
18898;DHT22;9581;49.484;8.556;2023-05-02T12:55:43;23.10;92.70
18898;DHT22;9581;49.484;8.556;2023-05-02T12:58:11;23.10;92.20
18898;DHT22;9581;49.484;8.556;2023-05-02T13:00:40;23.30;92.00
18898;DHT22;9581;49.484;8.556;2023-05-02T13:03:07;23.40;92.30
18898;DHT22;9581;49.484;8.556;2023-05-02T13:05:34;23.10;92.20
18898;DHT22;9581;49.484;8.556;2023-05-02T13:08:01;23.40;93.10
18898;DHT22;9581;49.484;8.556;2023-05-02T13:10:30;23.60;92.70
18898;DHT22;9581;49.484;8.556;2023-05-02T13:12:57;23.40;92.00
18898;DHT22;9581;49.484;8.556;2023-05-02T13:15:24;23.40;92.20
18898;DHT22;9581;49.484;8.556;2023-05-02T13:17:51;23.60;92.20
18898;DHT22;9581;49.484;8.556;2023-05-02T13:20:18;23.50;91.80
18898;DHT22;9581;49.484;8.556;2023-05-02T13:22:45;23.30;91.50
18898;DHT22;9581;49.484;8.556;2023-05-02T13:25:12;23.20;91.90
18898;DHT22;9581;49.484;8.556;2023-05-02T13:27:40;23.20;92.50
18898;DHT22;9581;49.484;8.556;2023-05-02T13:30:08;23.40;90.90
18898;DHT22;9581;49.484;8.556;2023-05-02T13:32:36;24.80;92.80
18898;DHT22;9581;49.484;8.556;2023-05-02T13:35:04;24.90;89.10
18898;DHT22;9581;49.484;8.556;2023-05-02T13:37:31;25.50;91.70
18898;DHT22;9581;49.484;8.556;2023-05-02T13:39:58;25.90;91.20
18898;DHT22;9581;49.484;8.556;2023-05-02T13:42:25;25.90;89.60
18898;DHT22;9581;49.484;8.556;2023-05-02T13:44:53;25.90;88.00
18898;DHT22;9581;49.484;8.556;2023-05-02T13:47:21;26.30;90.00
18898;DHT22;9581;49.484;8.556;2023-05-02T13:49:47;26.40;89.10
18898;DHT22;9581;49.484;8.556;2023-05-02T13:52:14;26.10;88.40
18898;DHT22;9581;49.484;8.556;2023-05-02T13:54:41;26.60;87.40
18898;DHT22;9581;49.484;8.556;2023-05-02T13:57:08;26.70;84.20
18898;DHT22;9581;49.484;8.556;2023-05-02T13:59:35;25.40;83.40
18898;DHT22;9581;49.484;8.556;2023-05-02T14:02:03;25.80;84.30
18898;DHT22;9581;49.484;8.556;2023-05-02T14:04:30;25.70;84.20
18898;DHT22;9581;49.484;8.556;2023-05-02T14:06:57;24.60;87.10
18898;DHT22;9581;49.484;8.556;2023-05-02T14:09:24;24.80;86.30
18898;DHT22;9581;49.484;8.556;2023-05-02T14:11:51;24.90;87.00
18898;DHT22;9581;49.484;8.556;2023-05-02T14:14:18;25.10;87.70
18898;DHT22;9581;49.484;8.556;2023-05-02T14:16:44;24.90;87.20
18898;DHT22;9581;49.484;8.556;2023-05-02T14:19:12;25.90;85.60
18898;DHT22;9581;49.484;8.556;2023-05-02T14:21:39;27.60;84.30
18898;DHT22;9581;49.484;8.556;2023-05-02T14:24:06;28.70;83.00
18898;DHT22;9581;49.484;8.556;2023-05-02T14:26:33;29.20;82.10
18898;DHT22;9581;49.484;8.556;2023-05-02T14:29:00;29.60;78.80
18898;DHT22;9581;49.484;8.556;2023-05-02T14:31:27;29.00;77.30
18898;DHT22;9581;49.484;8.556;2023-05-02T14:33:53;29.10;76.80
18898;DHT22;9581;49.484;8.556;2023-05-02T14:36:21;29.00;74.60
18898;DHT22;9581;49.484;8.556;2023-05-02T14:38:48;28.80;76.40
18898;DHT22;9581;49.484;8.556;2023-05-02T14:41:15;29.50;75.00
18898;DHT22;9581;49.484;8.556;2023-05-02T14:43:42;30.20;73.50
18898;DHT22;9581;49.484;8.556;2023-05-02T14:46:09;30.10;71.40
18898;DHT22;9581;49.484;8.556;2023-05-02T14:48:35;29.70;73.70
18898;DHT22;9581;49.484;8.556;2023-05-02T14:51:03;30.80;71.50
18898;DHT22;9581;49.484;8.556;2023-05-02T14:53:31;31.20;69.00
18898;DHT22;9581;49.484;8.556;2023-05-02T14:55:58;31.60;66.00
18898;DHT22;9581;49.484;8.556;2023-05-02T14:58:25;32.50;65.20
18898;DHT22;9581;49.484;8.556;2023-05-02T15:00:52;33.30;62.40
18898;DHT22;9581;49.484;8.556;2023-05-02T15:03:18;35.50;59.00
18898;DHT22;9581;49.484;8.556;2023-05-02T15:05:45;38.50;54.20
18898;DHT22;9581;49.484;8.556;2023-05-02T15:08:12;40.80;49.40
18898;DHT22;9581;49.484;8.556;2023-05-02T15:10:40;41.90;45.00
18898;DHT22;9581;49.484;8.556;2023-05-02T15:13:07;41.90;43.30
18898;DHT22;9581;49.484;8.556;2023-05-02T15:15:34;41.90;42.20
18898;DHT22;9581;49.484;8.556;2023-05-02T15:18:02;41.60;39.70
18898;DHT22;9581;49.484;8.556;2023-05-02T15:20:29;40.40;40.30
18898;DHT22;9581;49.484;8.556;2023-05-02T15:22:56;39.30;40.70
18898;DHT22;9581;49.484;8.556;2023-05-02T15:25:27;39.00;40.30
18898;DHT22;9581;49.484;8.556;2023-05-02T15:27:55;39.40;41.30
18898;DHT22;9581;49.484;8.556;2023-05-02T15:30:22;38.30;40.90
18898;DHT22;9581;49.484;8.556;2023-05-02T15:32:49;37.60;41.20
18898;DHT22;9581;49.484;8.556;2023-05-02T15:35:16;38.00;42.00
18898;DHT22;9581;49.484;8.556;2023-05-02T15:37:42;36.50;41.50
18898;DHT22;9581;49.484;8.556;2023-05-02T15:40:10;37.30;42.10
18898;DHT22;9581;49.484;8.556;2023-05-02T15:42:37;36.40;42.90
18898;DHT22;9581;49.484;8.556;2023-05-02T15:45:07;35.80;43.90
18898;DHT22;9581;49.484;8.556;2023-05-02T15:47:36;33.60;45.50
18898;DHT22;9581;49.484;8.556;2023-05-02T15:50:03;30.10;49.30
18898;DHT22;9581;49.484;8.556;2023-05-02T15:52:30;27.80;51.90
18898;DHT22;9581;49.484;8.556;2023-05-02T15:54:56;26.50;53.50
18898;DHT22;9581;49.484;8.556;2023-05-02T15:57:25;26.00;55.30
18898;DHT22;9581;49.484;8.556;2023-05-02T15:59:52;25.40;55.50